This is the latest recevied weather packets stored in our database for station/object JH1LWU-13. If no packets are shown the sender has not sent any weather packets the latest 10 day(s).
| Time | Temp. | Humidity | Pressure | Rain* | Wind** | Luminosity | Snow |
|---|---|---|---|---|---|---|---|
| 1788254420 | 25° C | 73% | 1012 hPa | - | - | - | - |
| 1788250818 | 25.56° C | 71% | 1012 hPa | - | - | - | - |
| 1788249017 | 26.11° C | 70% | 1012 hPa | - | - | - | - |
| 1788247216 | 26.11° C | 69% | 1012 hPa | - | - | - | - |
| 1788245415 | 26.67° C | 67% | 1012 hPa | - | - | - | - |
| 1788243614 | 27.22° C | 65% | 1011 hPa | - | - | - | - |
| 1788241813 | 27.22° C | 64% | 1013 hPa | - | - | - | - |
| 1788240012 | 27.22° C | 64% | 1012 hPa | - | - | - | - |
| 1788238211 | 27.22° C | 64% | 1012 hPa | - | - | - | - |
| 1788214798 | 23.33° C | 70% | 1014 hPa | - | - | - | - |
| 1788212997 | 22.78° C | 72% | 1012 hPa | - | - | - | - |
| 1788211196 | 22.22° C | 74% | 1015 hPa | - | - | - | - |
| 1788209395 | 22.22° C | 74% | 1014 hPa | - | - | - | - |
| 1788207594 | 22.22° C | 74% | 1014 hPa | - | - | - | - |
| 1788203992 | 22.22° C | 74% | 1012 hPa | - | - | - | - |
| 1788200390 | 22.22° C | 74% | 1015 hPa | - | - | - | - |
| 1788196788 | 22.22° C | 74% | 1015 hPa | - | - | - | - |
| 1788194987 | 22.22° C | 74% | 1012 hPa | - | - | - | - |
| 1788193186 | 22.22° C | 74% | 1014 hPa | - | - | - | - |
| 1788191385 | 22.22° C | 73% | 1015 hPa | - | - | - | - |
| 1788189584 | 22.22° C | 73% | 1014 hPa | - | - | - | - |
| 1788187783 | 22.22° C | 73% | 1014 hPa | - | - | - | - |
| 1788185982 | 22.22° C | 74% | 1015 hPa | - | - | - | - |
| 1788182380 | 22.78° C | 73% | 1013 hPa | - | - | - | - |
| 1788180579 | 22.78° C | 73% | 1013 hPa | - | - | - | - |
* Rain since midnight (hover to see other rain measurements)
** Current wind speed in m/s (hover to see current wind gust speed)